createdAt,value
2023-04-26T00:00:57.672Z,94857.00
2023-04-26T00:01:57.662Z,94857.00
2023-04-26T00:02:57.799Z,94857.00
2023-04-26T00:03:57.944Z,94859.00
2023-04-26T00:04:57.842Z,94859.00
2023-04-26T00:05:57.764Z,94859.00
2023-04-26T00:06:57.635Z,94857.00
2023-04-26T00:07:57.631Z,94857.00
2023-04-26T00:08:57.638Z,94855.00
2023-04-26T00:09:57.630Z,94857.00
2023-04-26T00:10:57.629Z,94857.00
2023-04-26T00:11:57.618Z,94857.00
2023-04-26T00:12:57.611Z,94859.00
2023-04-26T00:13:57.588Z,94859.00
2023-04-26T00:14:57.598Z,94859.00
2023-04-26T00:15:57.692Z,94859.00
2023-04-26T00:16:57.592Z,94859.00
2023-04-26T00:17:57.626Z,94857.00
2023-04-26T00:18:57.597Z,94857.00
2023-04-26T00:19:57.591Z,94859.00
2023-04-26T00:20:57.587Z,94857.00
2023-04-26T00:21:57.596Z,94861.00
2023-04-26T00:22:57.682Z,94859.00
2023-04-26T00:23:57.601Z,94861.00
2023-04-26T00:24:57.597Z,94863.00
2023-04-26T00:25:57.603Z,94861.00
2023-04-26T00:26:57.617Z,94865.00
2023-04-26T00:27:57.650Z,94865.00
2023-04-26T00:28:57.623Z,94863.00
2023-04-26T00:29:57.611Z,94861.00
2023-04-26T00:30:57.624Z,94859.00
2023-04-26T00:31:57.659Z,94863.00
2023-04-26T00:32:57.682Z,94863.00
2023-04-26T00:33:57.639Z,94865.00
2023-04-26T00:34:57.685Z,94863.00
2023-04-26T00:35:57.668Z,94861.00
2023-04-26T00:36:57.692Z,94863.00
2023-04-26T00:37:57.711Z,94863.00
2023-04-26T00:38:57.738Z,94863.00
2023-04-26T00:39:57.733Z,94861.00
2023-04-26T00:40:57.745Z,94861.00
2023-04-26T00:41:57.740Z,94861.00
2023-04-26T00:42:57.723Z,94859.00
2023-04-26T00:43:57.788Z,94861.00
2023-04-26T00:44:57.887Z,94861.00
2023-04-26T00:45:57.800Z,94857.00
2023-04-26T00:46:57.796Z,94857.00
2023-04-26T00:47:57.843Z,94857.00
2023-04-26T00:48:57.801Z,94857.00
2023-04-26T00:49:57.848Z,94859.00
2023-04-26T00:50:57.831Z,94859.00
2023-04-26T00:51:57.880Z,94859.00
2023-04-26T00:52:57.926Z,94855.00
2023-04-26T00:53:57.891Z,94853.00
2023-04-26T00:54:58.878Z,94851.00
2023-04-26T00:55:57.962Z,94849.00
2023-04-26T00:56:57.924Z,94847.00
2023-04-26T00:57:57.936Z,94847.00
2023-04-26T00:58:57.940Z,94845.00
2023-04-26T00:59:57.955Z,94847.00
2023-04-26T01:00:58.015Z,94845.00
2023-04-26T01:01:58.006Z,94845.00
2023-04-26T01:02:58.090Z,94847.00
2023-04-26T01:03:58.229Z,94841.00
2023-04-26T01:04:58.007Z,94843.00
2023-04-26T01:05:58.111Z,94845.00
2023-04-26T01:06:58.067Z,94845.00
2023-04-26T01:07:58.087Z,94839.00
2023-04-26T01:08:58.108Z,94841.00
2023-04-26T01:09:58.107Z,94843.00
2023-04-26T01:10:58.120Z,94843.00
2023-04-26T01:11:58.156Z,94843.00
2023-04-26T01:12:58.137Z,94839.00
2023-04-26T01:13:58.188Z,94837.00
2023-04-26T01:14:58.214Z,94839.00
2023-04-26T01:15:58.227Z,94835.00
2023-04-26T01:16:58.257Z,94837.00
2023-04-26T01:17:58.321Z,94837.00
2023-04-26T01:18:58.278Z,94839.00
2023-04-26T01:19:58.325Z,94837.00
2023-04-26T01:20:58.440Z,94837.00
2023-04-26T01:21:58.322Z,94833.00
2023-04-26T01:22:58.358Z,94833.00
2023-04-26T01:23:58.396Z,94833.00
2023-04-26T01:24:58.448Z,94833.00
2023-04-26T01:25:58.416Z,94835.00
2023-04-26T01:26:58.466Z,94833.00
2023-04-26T01:27:58.496Z,94833.00
2023-04-26T01:28:58.486Z,94833.00
2023-04-26T01:29:58.491Z,94833.00
2023-04-26T01:30:58.538Z,94835.00
2023-04-26T01:31:58.522Z,94839.00
2023-04-26T01:32:58.576Z,94839.00
2023-04-26T01:33:58.546Z,94837.00
2023-04-26T01:34:58.583Z,94839.00
2023-04-26T01:35:58.574Z,94839.00
2023-04-26T01:36:58.605Z,94837.00
2023-04-26T01:37:58.649Z,94839.00
2023-04-26T01:38:58.646Z,94839.00
2023-04-26T01:39:58.682Z,94839.00
2023-04-26T01:40:58.707Z,94845.00
2023-04-26T01:41:58.741Z,94843.00
2023-04-26T01:42:58.721Z,94841.00
2023-04-26T01:43:58.748Z,94843.00
2023-04-26T01:44:58.762Z,94839.00
2023-04-26T01:45:58.979Z,94841.00
2023-04-26T01:46:58.810Z,94847.00
2023-04-26T01:47:58.850Z,94843.00
2023-04-26T01:48:58.810Z,94845.00
2023-04-26T01:49:58.869Z,94845.00
2023-04-26T01:50:58.869Z,94843.00
2023-04-26T01:51:58.935Z,94845.00
2023-04-26T01:52:58.915Z,94847.00
2023-04-26T01:53:58.947Z,94847.00
2023-04-26T01:54:58.955Z,94851.00
2023-04-26T01:55:58.966Z,94851.00
2023-04-26T01:56:58.973Z,94853.00
2023-04-26T01:57:58.988Z,94849.00
2023-04-26T01:58:59.004Z,94853.00
2023-04-26T01:59:59.011Z,94853.00
2023-04-26T02:00:59.009Z,94853.00
2023-04-26T02:01:59.136Z,94851.00
2023-04-26T02:02:59.154Z,94851.00
2023-04-26T02:03:59.082Z,94851.00
2023-04-26T02:04:59.133Z,94849.00
2023-04-26T02:05:59.130Z,94853.00
2023-04-26T02:06:59.135Z,94851.00
2023-04-26T02:07:59.143Z,94853.00
2023-04-26T02:08:59.227Z,94855.00
2023-04-26T02:09:59.202Z,94857.00
2023-04-26T02:10:59.239Z,94859.00
2023-04-26T02:11:59.209Z,94859.00
2023-04-26T02:12:59.196Z,94857.00
2023-04-26T02:13:59.238Z,94861.00
2023-04-26T02:14:59.253Z,94859.00
2023-04-26T02:15:59.432Z,94859.00
2023-04-26T02:16:59.283Z,94859.00
2023-04-26T02:17:59.320Z,94859.00
2023-04-26T02:18:59.332Z,94857.00
2023-04-26T02:19:59.317Z,94855.00
2023-04-26T02:20:59.348Z,94857.00
2023-04-26T02:21:59.353Z,94857.00
2023-04-26T02:22:59.353Z,94855.00
2023-04-26T02:23:59.372Z,94853.00
2023-04-26T02:24:59.561Z,94853.00
2023-04-26T02:25:59.403Z,94853.00
2023-04-26T02:26:59.402Z,94853.00
2023-04-26T02:27:59.447Z,94853.00
2023-04-26T02:28:59.433Z,94851.00
2023-04-26T02:29:59.495Z,94851.00
2023-04-26T02:30:59.520Z,94851.00
2023-04-26T02:31:59.522Z,94849.00
2023-04-26T02:32:59.558Z,94849.00
2023-04-26T02:33:59.542Z,94847.00
2023-04-26T02:34:59.591Z,94847.00
2023-04-26T02:35:59.582Z,94851.00
2023-04-26T02:36:59.586Z,94849.00
2023-04-26T02:37:59.588Z,94851.00
2023-04-26T02:38:59.637Z,94849.00
2023-04-26T02:39:59.642Z,94847.00
2023-04-26T02:40:59.678Z,94847.00
2023-04-26T02:41:59.706Z,94849.00
2023-04-26T02:42:59.682Z,94847.00
2023-04-26T02:43:59.708Z,94847.00
2023-04-26T02:44:59.722Z,94849.00
2023-04-26T02:45:59.754Z,94849.00
2023-04-26T02:46:59.787Z,94847.00
2023-04-26T02:47:59.805Z,94853.00
2023-04-26T02:48:59.791Z,94851.00
2023-04-26T02:49:59.798Z,94853.00
2023-04-26T02:50:59.824Z,94851.00
2023-04-26T02:51:59.853Z,94849.00
2023-04-26T02:52:59.895Z,94849.00
2023-04-26T02:53:59.862Z,94845.00
2023-04-26T02:54:59.905Z,94843.00
2023-04-26T02:55:59.930Z,94843.00
2023-04-26T02:56:59.926Z,94845.00
2023-04-26T02:57:59.932Z,94841.00
2023-04-26T02:59:00.041Z,94841.00
2023-04-26T02:59:59.976Z,94843.00
2023-04-26T03:01:01.579Z,94841.00
2023-04-26T03:02:00.058Z,94841.00
2023-04-26T03:03:00.215Z,94841.00
2023-04-26T03:04:00.163Z,94839.00
2023-04-26T03:05:00.059Z,94839.00
2023-04-26T03:06:00.072Z,94839.00
2023-04-26T03:07:00.124Z,94837.00
2023-04-26T03:08:00.125Z,94839.00
2023-04-26T03:09:00.139Z,94837.00
2023-04-26T03:10:00.191Z,94837.00
2023-04-26T03:11:00.200Z,94839.00
2023-04-26T03:12:00.282Z,94841.00
2023-04-26T03:13:00.268Z,94841.00
2023-04-26T03:14:00.221Z,94841.00
2023-04-26T03:15:00.313Z,94843.00
2023-04-26T03:16:00.277Z,94839.00
2023-04-26T03:17:00.424Z,94837.00
2023-04-26T03:18:00.357Z,94835.00
2023-04-26T03:19:00.346Z,94837.00
2023-04-26T03:20:02.499Z,94835.00
2023-04-26T03:21:00.499Z,94835.00
2023-04-26T03:22:00.534Z,94839.00
2023-04-26T03:23:00.529Z,94843.00
2023-04-26T03:24:00.554Z,94841.00
2023-04-26T03:25:00.554Z,94841.00
2023-04-26T03:26:00.579Z,94837.00
2023-04-26T03:27:00.588Z,94839.00
2023-04-26T03:28:00.644Z,94839.00
2023-04-26T03:29:00.667Z,94841.00
2023-04-26T03:30:00.664Z,94841.00
2023-04-26T03:31:00.696Z,94843.00
2023-04-26T03:32:00.797Z,94843.00
2023-04-26T03:33:00.749Z,94841.00
2023-04-26T03:34:00.735Z,94845.00
2023-04-26T03:35:00.754Z,94847.00
2023-04-26T03:36:00.802Z,94847.00
2023-04-26T03:37:00.797Z,94845.00
2023-04-26T03:38:00.835Z,94849.00
2023-04-26T03:39:00.852Z,94845.00
2023-04-26T03:40:01.000Z,94847.00
2023-04-26T03:41:00.900Z,94849.00
2023-04-26T03:42:00.936Z,94849.00
2023-04-26T03:43:00.989Z,94847.00
2023-04-26T03:44:00.994Z,94847.00
2023-04-26T03:45:01.084Z,94849.00
2023-04-26T03:46:01.080Z,94847.00
2023-04-26T03:47:01.058Z,94847.00
2023-04-26T03:48:01.102Z,94845.00
2023-04-26T03:49:01.094Z,94845.00
2023-04-26T03:50:01.127Z,94845.00
2023-04-26T03:51:01.162Z,94849.00
2023-04-26T03:52:01.167Z,94851.00
2023-04-26T03:53:01.219Z,94849.00
2023-04-26T03:54:01.233Z,94851.00
2023-04-26T03:55:01.210Z,94851.00
2023-04-26T03:56:01.240Z,94849.00
2023-04-26T03:57:01.302Z,94849.00
2023-04-26T03:58:01.307Z,94847.00
2023-04-26T03:59:01.394Z,94849.00
2023-04-26T04:00:01.396Z,94849.00
2023-04-26T04:01:01.378Z,94853.00
2023-04-26T04:02:01.432Z,94853.00
2023-04-26T04:03:01.595Z,94853.00
2023-04-26T04:04:01.695Z,94853.00
2023-04-26T04:05:01.591Z,94855.00
2023-04-26T04:06:01.501Z,94859.00
2023-04-26T04:07:01.548Z,94859.00
2023-04-26T04:08:01.587Z,94855.00
2023-04-26T04:09:01.654Z,94857.00
2023-04-26T04:10:01.596Z,94857.00
2023-04-26T04:11:01.636Z,94859.00
2023-04-26T04:12:01.645Z,94859.00
2023-04-26T04:13:01.698Z,94861.00
2023-04-26T04:14:01.722Z,94861.00
2023-04-26T04:15:01.730Z,94861.00
2023-04-26T04:16:01.804Z,94859.00
2023-04-26T04:17:01.885Z,94859.00
2023-04-26T04:18:01.863Z,94861.00
2023-04-26T04:19:01.855Z,94861.00
2023-04-26T04:20:01.886Z,94865.00
2023-04-26T04:21:01.925Z,94867.00
2023-04-26T04:22:01.977Z,94867.00
2023-04-26T04:23:01.951Z,94869.00
2023-04-26T04:24:02.016Z,94869.00
2023-04-26T04:25:02.077Z,94869.00
2023-04-26T04:26:02.064Z,94869.00
2023-04-26T04:27:02.099Z,94872.00
2023-04-26T04:28:02.095Z,94872.00
2023-04-26T04:29:02.128Z,94872.00
2023-04-26T04:30:02.122Z,94872.00
2023-04-26T04:31:02.211Z,94874.00
2023-04-26T04:32:02.179Z,94871.00
2023-04-26T04:33:02.272Z,94871.00
2023-04-26T04:34:02.257Z,94874.00
2023-04-26T04:35:02.315Z,94872.00
2023-04-26T04:36:02.316Z,94872.00
2023-04-26T04:37:02.346Z,94874.00
2023-04-26T04:38:02.367Z,94874.00
2023-04-26T04:39:02.393Z,94869.00
2023-04-26T04:40:02.461Z,94872.00
2023-04-26T04:41:02.495Z,94874.00
2023-04-26T04:42:02.502Z,94872.00
2023-04-26T04:43:02.537Z,94886.00
2023-04-26T04:44:02.574Z,94878.00
2023-04-26T04:45:02.606Z,94878.00
2023-04-26T04:46:02.697Z,94878.00
2023-04-26T04:47:02.686Z,94878.00
2023-04-26T04:48:02.740Z,94878.00
2023-04-26T04:49:02.759Z,94886.00
2023-04-26T04:50:02.776Z,94890.00
2023-04-26T04:51:02.830Z,94886.00
2023-04-26T04:52:02.865Z,94888.00
2023-04-26T04:53:02.978Z,94892.00
2023-04-26T04:54:02.953Z,94896.00
2023-04-26T04:55:02.989Z,94900.00
2023-04-26T04:56:03.010Z,94902.00
2023-04-26T04:57:03.050Z,94902.00
2023-04-26T04:58:03.022Z,94902.00
2023-04-26T04:59:03.056Z,94908.00
2023-04-26T05:00:03.059Z,94908.00
2023-04-26T05:01:03.076Z,94906.00
2023-04-26T05:02:03.118Z,94908.00
2023-04-26T05:03:03.241Z,94912.00
2023-04-26T05:04:04.160Z,94912.00
2023-04-26T05:05:03.156Z,94912.00
2023-04-26T05:06:03.090Z,94914.00
2023-04-26T05:07:03.104Z,94912.00
2023-04-26T05:08:03.169Z,94914.00
2023-04-26T05:09:03.157Z,94914.00
2023-04-26T05:10:03.149Z,94914.00
2023-04-26T05:11:03.121Z,94916.00
2023-04-26T05:12:03.116Z,94920.00
2023-04-26T05:13:03.108Z,94920.00
2023-04-26T05:14:03.110Z,94918.00
2023-04-26T05:15:03.085Z,94918.00
2023-04-26T05:16:03.099Z,94918.00
2023-04-26T05:17:03.049Z,94922.00
2023-04-26T05:18:03.103Z,94918.00
2023-04-26T05:19:03.046Z,94924.00
2023-04-26T05:20:03.447Z,94920.00
2023-04-26T05:21:03.070Z,94920.00
2023-04-26T05:22:03.072Z,94924.00
2023-04-26T05:23:03.130Z,94924.00
2023-04-26T05:24:03.151Z,94924.00
2023-04-26T05:25:03.167Z,94924.00
2023-04-26T05:26:03.215Z,94925.00
2023-04-26T05:27:03.242Z,94924.00
2023-04-26T05:28:03.298Z,94924.00
2023-04-26T05:29:03.334Z,94924.00
2023-04-26T05:30:03.393Z,94925.00
2023-04-26T05:31:03.368Z,94924.00
2023-04-26T05:32:03.576Z,94925.00
2023-04-26T05:33:03.551Z,94929.00
2023-04-26T05:34:03.522Z,94935.00
2023-04-26T05:35:03.607Z,94929.00
2023-04-26T05:36:03.685Z,94927.00
2023-04-26T05:37:03.674Z,94931.00
2023-04-26T05:38:03.683Z,94931.00
2023-04-26T05:39:03.709Z,94933.00
2023-04-26T05:40:03.755Z,94935.00
2023-04-26T05:41:03.796Z,94931.00
2023-04-26T05:42:03.820Z,94935.00
2023-04-26T05:43:03.872Z,94931.00
2023-04-26T05:44:03.920Z,94935.00
2023-04-26T05:45:03.950Z,94937.00
2023-04-26T05:46:04.130Z,94935.00
2023-04-26T05:47:04.028Z,94937.00
2023-04-26T05:48:04.119Z,94933.00
2023-04-26T05:49:04.029Z,94933.00
2023-04-26T05:50:04.506Z,94937.00
2023-04-26T05:51:04.030Z,94933.00
2023-04-26T05:52:04.014Z,94933.00
2023-04-26T05:53:04.024Z,94935.00
2023-04-26T05:54:04.077Z,94935.00
2023-04-26T05:55:04.473Z,94937.00
2023-04-26T05:56:04.017Z,94933.00
2023-04-26T05:57:04.020Z,94935.00
2023-04-26T05:58:03.984Z,94939.00
2023-04-26T05:59:04.001Z,94937.00
2023-04-26T06:00:04.040Z,94939.00
2023-04-26T06:01:03.980Z,94941.00
2023-04-26T06:02:03.982Z,94947.00
2023-04-26T06:03:04.147Z,94943.00
2023-04-26T06:04:04.365Z,94941.00
2023-04-26T06:05:04.741Z,94943.00
2023-04-26T06:06:04.192Z,94945.00
2023-04-26T06:07:04.177Z,94945.00
2023-04-26T06:08:04.217Z,94949.00
2023-04-26T06:09:04.289Z,94949.00
2023-04-26T06:10:04.326Z,94951.00
2023-04-26T06:11:04.351Z,94949.00
2023-04-26T06:12:04.365Z,94949.00
2023-04-26T06:13:04.450Z,94951.00
2023-04-26T06:14:04.462Z,94949.00
2023-04-26T06:15:04.516Z,94951.00
2023-04-26T06:16:04.515Z,94949.00
2023-04-26T06:17:04.596Z,94949.00
2023-04-26T06:18:04.679Z,94953.00
2023-04-26T06:19:04.644Z,94951.00
2023-04-26T06:20:04.667Z,94953.00
2023-04-26T06:21:04.680Z,94951.00
2023-04-26T06:22:04.740Z,94953.00
2023-04-26T06:23:04.790Z,94953.00
2023-04-26T06:24:04.797Z,94951.00
2023-04-26T06:25:04.831Z,94953.00
2023-04-26T06:26:04.832Z,94949.00
2023-04-26T06:27:04.846Z,94951.00
2023-04-26T06:28:04.853Z,94951.00
2023-04-26T06:29:04.900Z,94953.00
2023-04-26T06:30:04.953Z,94947.00
2023-04-26T06:31:04.967Z,94951.00
2023-04-26T06:32:04.984Z,94951.00
2023-04-26T06:33:05.038Z,94953.00
2023-04-26T06:34:05.010Z,94955.00
2023-04-26T06:35:05.066Z,94957.00
2023-04-26T06:36:05.071Z,94957.00
2023-04-26T06:37:05.108Z,94955.00
2023-04-26T06:38:05.148Z,94959.00
2023-04-26T06:39:05.191Z,94957.00
2023-04-26T06:40:05.201Z,94959.00
2023-04-26T06:41:05.247Z,94957.00
2023-04-26T06:42:05.288Z,94957.00
2023-04-26T06:43:05.305Z,94959.00
2023-04-26T06:44:05.339Z,94959.00
2023-04-26T06:45:05.390Z,94961.00
2023-04-26T06:46:05.442Z,94961.00
2023-04-26T06:47:05.464Z,94959.00
2023-04-26T06:48:05.577Z,94961.00
2023-04-26T06:49:05.552Z,94959.00
2023-04-26T06:50:06.052Z,94961.00
2023-04-26T06:51:05.629Z,94961.00
2023-04-26T06:52:05.648Z,94961.00
2023-04-26T06:53:05.656Z,94961.00
2023-04-26T06:54:05.621Z,94961.00
2023-04-26T06:55:05.656Z,94957.00
2023-04-26T06:56:05.676Z,94959.00
2023-04-26T06:57:05.716Z,94955.00
2023-04-26T06:58:05.785Z,94961.00
2023-04-26T06:59:05.787Z,94961.00
2023-04-26T07:00:05.854Z,94957.00
2023-04-26T07:01:05.906Z,94957.00
2023-04-26T07:02:05.976Z,94955.00
2023-04-26T07:03:06.126Z,94955.00
2023-04-26T07:04:06.159Z,94953.00
2023-04-26T07:05:06.284Z,94953.00
2023-04-26T07:06:06.128Z,94949.00
2023-04-26T07:07:06.191Z,94951.00
2023-04-26T07:08:06.250Z,94951.00
2023-04-26T07:09:06.311Z,94945.00
2023-04-26T07:10:06.554Z,94945.00
2023-04-26T07:11:06.342Z,94945.00
2023-04-26T07:12:06.822Z,94941.00
2023-04-26T07:13:08.197Z,94943.00
2023-04-26T07:14:06.358Z,94947.00
2023-04-26T07:15:06.378Z,94949.00
2023-04-26T07:16:06.413Z,94947.00
2023-04-26T07:17:06.344Z,94949.00
2023-04-26T07:18:06.379Z,94949.00
2023-04-26T07:19:06.300Z,94951.00
2023-04-26T07:20:06.320Z,94951.00
2023-04-26T07:21:06.299Z,94947.00
2023-04-26T07:22:06.306Z,94947.00
2023-04-26T07:23:06.276Z,94945.00
2023-04-26T07:24:06.301Z,94943.00
2023-04-26T07:25:06.246Z,94943.00
2023-04-26T07:26:06.247Z,94941.00
2023-04-26T07:27:06.227Z,94943.00
2023-04-26T07:28:06.192Z,94941.00
2023-04-26T07:29:06.237Z,94943.00
2023-04-26T07:30:06.196Z,94947.00
2023-04-26T07:31:08.436Z,94939.00
2023-04-26T07:32:06.188Z,94943.00
2023-04-26T07:33:06.276Z,94941.00
2023-04-26T07:34:06.172Z,94943.00
2023-04-26T07:35:06.180Z,94943.00
2023-04-26T07:36:06.125Z,94943.00
2023-04-26T07:37:06.192Z,94947.00
2023-04-26T07:38:06.117Z,94943.00
2023-04-26T07:39:06.105Z,94943.00
2023-04-26T07:40:06.573Z,94945.00
2023-04-26T07:41:06.064Z,94941.00
2023-04-26T07:42:06.071Z,94943.00
2023-04-26T07:43:06.039Z,94943.00
2023-04-26T07:44:06.078Z,94937.00
2023-04-26T07:45:06.017Z,94939.00
2023-04-26T07:46:06.085Z,94935.00
2023-04-26T07:47:06.082Z,94935.00
2023-04-26T07:48:06.042Z,94935.00
2023-04-26T07:49:05.952Z,94937.00
2023-04-26T07:50:05.944Z,94937.00
2023-04-26T07:51:05.946Z,94939.00
2023-04-26T07:52:05.905Z,94939.00
2023-04-26T07:53:05.885Z,94941.00
2023-04-26T07:54:05.927Z,94939.00
2023-04-26T07:55:05.867Z,94939.00
2023-04-26T07:56:05.845Z,94941.00
2023-04-26T07:57:05.818Z,94939.00
2023-04-26T07:58:05.799Z,94941.00
2023-04-26T07:59:05.771Z,94939.00
2023-04-26T08:00:05.819Z,94937.00
2023-04-26T08:01:05.750Z,94937.00
2023-04-26T08:02:05.782Z,94941.00
2023-04-26T08:03:05.821Z,94937.00
2023-04-26T08:04:05.969Z,94935.00
2023-04-26T08:05:05.854Z,94939.00
2023-04-26T08:06:05.853Z,94937.00
2023-04-26T08:07:05.634Z,94939.00
2023-04-26T08:08:05.596Z,94941.00
2023-04-26T08:09:05.591Z,94947.00
2023-04-26T08:10:06.024Z,94945.00
2023-04-26T08:11:05.556Z,94945.00
2023-04-26T08:12:05.553Z,94941.00
2023-04-26T08:13:05.550Z,94945.00
2023-04-26T08:14:05.534Z,94943.00
2023-04-26T08:15:05.486Z,94935.00
2023-04-26T08:16:05.532Z,94933.00
2023-04-26T08:17:05.627Z,94931.00
2023-04-26T08:18:05.641Z,94927.00
2023-04-26T08:19:05.631Z,94925.00
2023-04-26T08:20:05.661Z,94925.00
2023-04-26T08:21:05.739Z,94924.00
2023-04-26T08:22:05.761Z,94924.00
2023-04-26T08:23:05.771Z,94924.00
2023-04-26T08:24:05.840Z,94922.00
2023-04-26T08:25:05.879Z,94922.00
2023-04-26T08:26:05.908Z,94924.00
2023-04-26T08:27:05.939Z,94922.00
2023-04-26T08:28:06.028Z,94920.00
2023-04-26T08:29:06.050Z,94920.00
2023-04-26T08:30:06.089Z,94912.00
2023-04-26T08:31:06.179Z,94914.00
2023-04-26T08:32:06.355Z,94914.00
2023-04-26T08:33:06.263Z,94916.00
2023-04-26T08:34:06.234Z,94916.00
2023-04-26T08:35:06.561Z,94914.00
2023-04-26T08:36:06.297Z,94916.00
2023-04-26T08:37:06.374Z,94914.00
2023-04-26T08:38:06.365Z,94912.00
2023-04-26T08:39:06.398Z,94914.00
2023-04-26T08:40:06.526Z,94910.00
2023-04-26T08:41:06.485Z,94908.00
2023-04-26T08:42:06.484Z,94912.00
2023-04-26T08:43:06.502Z,94910.00
2023-04-26T08:44:06.548Z,94906.00
2023-04-26T08:45:07.032Z,94906.00
2023-04-26T08:46:06.633Z,94902.00
2023-04-26T08:47:06.624Z,94906.00
2023-04-26T08:48:06.647Z,94904.00
2023-04-26T08:49:06.643Z,94904.00
2023-04-26T08:50:06.689Z,94906.00
2023-04-26T08:51:07.039Z,94906.00
2023-04-26T08:52:06.722Z,94902.00
2023-04-26T08:53:06.736Z,94904.00
2023-04-26T08:54:06.807Z,94902.00
2023-04-26T08:55:06.828Z,94900.00
2023-04-26T08:56:06.830Z,94898.00
2023-04-26T08:57:06.897Z,94896.00
2023-04-26T08:58:06.868Z,94896.00
2023-04-26T08:59:07.068Z,94898.00
2023-04-26T09:00:06.957Z,94894.00
2023-04-26T09:01:06.976Z,94896.00
2023-04-26T09:02:07.082Z,94892.00
2023-04-26T09:03:07.155Z,94894.00
2023-04-26T09:04:07.090Z,94894.00
2023-04-26T09:05:07.096Z,94896.00
2023-04-26T09:06:07.722Z,94892.00
2023-04-26T09:07:07.061Z,94890.00
2023-04-26T09:08:07.125Z,94890.00
2023-04-26T09:09:07.123Z,94888.00
2023-04-26T09:10:07.136Z,94878.00
2023-04-26T09:11:07.189Z,94888.00
2023-04-26T09:12:07.179Z,94888.00
2023-04-26T09:13:07.219Z,94888.00
2023-04-26T09:14:07.236Z,94888.00
2023-04-26T09:15:07.280Z,94888.00
2023-04-26T09:16:07.310Z,94878.00
2023-04-26T09:17:07.298Z,94886.00
2023-04-26T09:18:07.351Z,94876.00
2023-04-26T09:19:07.337Z,94872.00
2023-04-26T09:20:08.085Z,94871.00
2023-04-26T09:21:07.433Z,94872.00
2023-04-26T09:22:07.396Z,94869.00
2023-04-26T09:23:07.440Z,94867.00
2023-04-26T09:24:07.463Z,94867.00
2023-04-26T09:25:07.450Z,94869.00
2023-04-26T09:26:07.547Z,94863.00
2023-04-26T09:27:07.518Z,94865.00
2023-04-26T09:28:07.566Z,94859.00
2023-04-26T09:29:07.564Z,94861.00
2023-04-26T09:30:07.615Z,94859.00
2023-04-26T09:31:07.722Z,94857.00
2023-04-26T09:32:07.630Z,94859.00
2023-04-26T09:33:07.681Z,94857.00
2023-04-26T09:34:07.690Z,94857.00
2023-04-26T09:35:07.695Z,94855.00
2023-04-26T09:36:07.706Z,94853.00
2023-04-26T09:37:07.723Z,94851.00
2023-04-26T09:39:07.794Z,94855.00
2023-04-26T09:40:07.819Z,94851.00
2023-04-26T09:41:08.068Z,94851.00
2023-04-26T09:42:07.812Z,94849.00
2023-04-26T09:43:07.872Z,94847.00
2023-04-26T09:44:08.541Z,94849.00
2023-04-26T09:45:07.881Z,94849.00
2023-04-26T09:46:08.088Z,94847.00
2023-04-26T09:47:08.004Z,94843.00
2023-04-26T09:48:07.971Z,94841.00
2023-04-26T09:49:08.013Z,94839.00
2023-04-26T09:50:08.018Z,94835.00
2023-04-26T09:51:08.014Z,94837.00
2023-04-26T09:52:08.287Z,94837.00
2023-04-26T09:53:08.117Z,94829.00
2023-04-26T09:54:08.057Z,94827.00
2023-04-26T09:55:08.103Z,94831.00
2023-04-26T09:56:08.114Z,94829.00
2023-04-26T09:57:08.115Z,94829.00
2023-04-26T09:58:08.096Z,94827.00
2023-04-26T09:59:08.106Z,94827.00
2023-04-26T10:00:08.117Z,94825.00
2023-04-26T10:01:08.232Z,94829.00
2023-04-26T10:02:08.108Z,94825.00
2023-04-26T10:03:08.388Z,94825.00
2023-04-26T10:04:08.257Z,94825.00
2023-04-26T10:05:08.171Z,94824.00
2023-04-26T10:06:08.212Z,94829.00
2023-04-26T10:07:08.238Z,94825.00
2023-04-26T10:08:08.239Z,94822.00
2023-04-26T10:09:08.258Z,94818.00
2023-04-26T10:10:08.285Z,94816.00
2023-04-26T10:11:08.301Z,94816.00
2023-04-26T10:12:08.327Z,94814.00
2023-04-26T10:13:08.335Z,94812.00
2023-04-26T10:14:08.407Z,94814.00
2023-04-26T10:15:15.416Z,94816.00
2023-04-26T10:16:08.547Z,94814.00
2023-04-26T10:17:08.369Z,94812.00
2023-04-26T10:18:08.454Z,94812.00
2023-04-26T10:19:08.367Z,94810.00
2023-04-26T10:20:08.365Z,94812.00
2023-04-26T10:21:08.372Z,94812.00
2023-04-26T10:22:08.322Z,94810.00
2023-04-26T10:23:08.309Z,94810.00
2023-04-26T10:24:08.273Z,94808.00
2023-04-26T10:25:08.255Z,94804.00
2023-04-26T10:26:08.272Z,94800.00
2023-04-26T10:27:08.257Z,94800.00
2023-04-26T10:28:08.271Z,94796.00
2023-04-26T10:29:08.355Z,94794.00
2023-04-26T10:30:08.203Z,94800.00
2023-04-26T10:31:08.231Z,94798.00
2023-04-26T10:32:08.282Z,94796.00
2023-04-26T10:33:08.213Z,94796.00
2023-04-26T10:34:09.131Z,94800.00
2023-04-26T10:35:08.105Z,94796.00
2023-04-26T10:36:08.607Z,94794.00
2023-04-26T10:37:08.111Z,94790.00
2023-04-26T10:38:08.068Z,94788.00
2023-04-26T10:39:08.055Z,94794.00
2023-04-26T10:40:08.084Z,94790.00
2023-04-26T10:41:08.047Z,94790.00
2023-04-26T10:42:07.999Z,94788.00
2023-04-26T10:43:07.980Z,94784.00
2023-04-26T10:44:07.937Z,94784.00
2023-04-26T10:45:07.986Z,94782.00
2023-04-26T10:46:07.986Z,94784.00
2023-04-26T10:47:07.904Z,94778.00
2023-04-26T10:48:07.908Z,94777.00
2023-04-26T10:49:07.859Z,94777.00
2023-04-26T10:50:07.844Z,94771.00
2023-04-26T10:51:07.814Z,94767.00
2023-04-26T10:52:07.810Z,94765.00
2023-04-26T10:53:07.781Z,94767.00
2023-04-26T10:54:07.780Z,94767.00
2023-04-26T10:55:07.878Z,94765.00
2023-04-26T10:56:07.730Z,94763.00
2023-04-26T10:57:07.671Z,94761.00
2023-04-26T10:58:07.677Z,94759.00
2023-04-26T10:59:18.030Z,94757.00
2023-04-26T11:00:08.620Z,94755.00
2023-04-26T11:01:07.705Z,94757.00
2023-04-26T11:02:07.615Z,94757.00
2023-04-26T11:03:07.661Z,94759.00
2023-04-26T11:04:07.671Z,94759.00
2023-04-26T11:05:07.573Z,94755.00
2023-04-26T11:06:07.560Z,94761.00
2023-04-26T11:07:07.543Z,94755.00
2023-04-26T11:08:07.493Z,94751.00
2023-04-26T11:09:07.455Z,94749.00
2023-04-26T11:10:07.448Z,94747.00
2023-04-26T11:11:07.446Z,94745.00
2023-04-26T11:12:07.401Z,94745.00
2023-04-26T11:13:07.384Z,94741.00
2023-04-26T11:14:07.355Z,94739.00
2023-04-26T11:15:07.368Z,94739.00
2023-04-26T11:16:07.329Z,94735.00
2023-04-26T11:17:07.325Z,94731.00
2023-04-26T11:18:07.319Z,94733.00
2023-04-26T11:19:07.276Z,94737.00
2023-04-26T11:20:07.253Z,94731.00
2023-04-26T11:21:07.414Z,94733.00
2023-04-26T11:22:07.191Z,94735.00
2023-04-26T11:23:07.213Z,94731.00
2023-04-26T11:24:07.239Z,94727.00
2023-04-26T11:25:07.235Z,94725.00
2023-04-26T11:26:07.629Z,94722.00
2023-04-26T11:27:07.249Z,94723.00
2023-04-26T11:28:07.259Z,94720.00
2023-04-26T11:29:07.250Z,94718.00
2023-04-26T11:30:07.249Z,94720.00
2023-04-26T11:31:07.698Z,94714.00
2023-04-26T11:32:07.239Z,94712.00
2023-04-26T11:33:07.254Z,94710.00
2023-04-26T11:34:07.193Z,94708.00
2023-04-26T11:35:07.211Z,94708.00
2023-04-26T11:36:07.183Z,94704.00
2023-04-26T11:37:07.257Z,94706.00
2023-04-26T11:38:07.205Z,94704.00
2023-04-26T11:39:07.215Z,94712.00
2023-04-26T11:40:07.259Z,94708.00
2023-04-26T11:41:07.259Z,94706.00
2023-04-26T11:42:07.276Z,94708.00
2023-04-26T11:43:07.215Z,94712.00
2023-04-26T11:44:07.429Z,94710.00
2023-04-26T11:45:07.198Z,94712.00
2023-04-26T11:46:07.246Z,94708.00